Time;durP1;ratioP1;P1;durP2;ratioP2;P2;SDS_P1;SDS_P2;PMS_P1;PMS_P2;Temp;Humidity;BMP_temperature;BMP_pressure;BME280_temperature;BME280_humidity;BME280_pressure;Samples;Min_cycle;Max_cycle;Signal;HPM_P1;HPM_P2
2023/01/30 00:01:52;;;;;;;16.88;6.43;;;6.50;99.90;;;;;;5074256;28;20097;-74
2023/01/30 00:04:17;;;;;;;21.92;7.07;;;6.40;99.90;;;;;;5073166;28;20131;-74
2023/01/30 00:06:43;;;;;;;25.83;6.88;;;6.60;99.90;;;;;;5072771;28;20052;-74
2023/01/30 00:09:12;;;;;;;20.90;6.47;;;6.50;99.90;;;;;;5072625;28;20471;-74
2023/01/30 00:11:38;;;;;;;26.27;7.95;;;6.50;99.90;;;;;;5072809;28;20059;-74
2023/01/30 00:14:03;;;;;;;24.35;5.93;;;6.50;99.90;;;;;;5072667;28;20041;-74
2023/01/30 00:16:29;;;;;;;25.48;7.25;;;6.50;99.90;;;;;;5072708;28;20056;-74
2023/01/30 00:18:55;;;;;;;26.73;7.50;;;6.40;99.90;;;;;;5073664;28;20041;-74
2023/01/30 00:21:29;;;;;;;27.40;6.63;;;6.40;99.90;;;;;;5072668;28;20044;-74
2023/01/30 00:23:55;;;;;;;23.63;6.20;;;6.40;99.90;;;;;;5072479;28;20045;-74
2023/01/30 00:26:21;;;;;;;25.08;9.07;;;6.40;99.90;;;;;;5072776;28;20056;-74
2023/01/30 00:28:46;;;;;;;24.52;6.40;;;6.30;99.90;;;;;;5072310;28;20408;-74
2023/01/30 00:31:12;;;;;;;29.20;8.00;;;6.40;99.90;;;;;;5072424;28;20044;-74
2023/01/30 00:33:38;;;;;;;22.48;7.50;;;6.40;99.90;;;;;;5072692;28;20048;-74
2023/01/30 00:36:04;;;;;;;22.52;6.97;;;6.30;99.90;;;;;;5072544;28;20044;-74
2023/01/30 00:38:30;;;;;;;21.83;7.20;;;6.30;99.90;;;;;;5073724;28;20037;-74
2023/01/30 00:40:55;;;;;;;18.88;7.13;;;6.40;99.90;;;;;;5073689;28;20044;-74
2023/01/30 00:47:04;;;;;;;27.85;8.23;;;6.30;99.90;;;;;;5072633;28;20055;-74
2023/01/30 00:49:18;;;;;;;24.90;9.00;;;6.30;99.90;;;;;;5072358;28;20052;-74
2023/01/30 00:51:43;;;;;;;28.75;8.85;;;6.20;99.90;;;;;;5072224;28;20060;-74
2023/01/30 00:54:15;;;;;;;22.42;8.48;;;6.20;99.90;;;;;;5072276;28;20135;-75
2023/01/30 00:56:41;;;;;;;38.67;8.27;;;6.40;99.90;;;;;;5073376;28;20040;-74
2023/01/30 00:59:06;;;;;;;27.13;9.10;;;6.30;99.90;;;;;;5076040;28;20032;-74
2023/01/30 01:01:32;;;;;;;27.70;8.57;;;6.30;99.90;;;;;;5077493;28;20052;-74
2023/01/30 01:03:58;;;;;;;32.47;9.18;;;6.30;99.90;;;;;;5076213;28;20067;-74
2023/01/30 01:06:23;;;;;;;37.97;9.45;;;6.40;99.90;;;;;;5076261;28;20094;-74
2023/01/30 01:08:49;;;;;;;36.45;9.18;;;6.40;99.90;;;;;;5077590;28;20044;-74
2023/01/30 01:11:23;;;;;;;33.28;9.63;;;6.40;99.90;;;;;;5076127;28;20052;-74
2023/01/30 01:13:56;;;;;;;44.88;9.55;;;6.30;99.90;;;;;;5076060;28;20052;-74
2023/01/30 01:16:22;;;;;;;38.78;10.90;;;6.40;99.90;;;;;;5076018;28;20052;-74
2023/01/30 01:18:48;;;;;;;39.90;9.65;;;6.20;99.90;;;;;;5076253;28;20052;-74
2023/01/30 01:21:14;;;;;;;32.00;9.82;;;6.40;99.90;;;;;;5077219;28;20352;-74
2023/01/30 01:23:40;;;;;;;33.95;8.88;;;6.40;99.90;;;;;;5076207;28;20049;-74
2023/01/30 01:26:06;;;;;;;25.05;7.80;;;6.30;99.90;;;;;;5076159;28;20403;-74
2023/01/30 01:28:31;;;;;;;30.85;8.18;;;6.20;99.90;;;;;;5075608;28;20396;-74
2023/01/30 01:30:57;;;;;;;38.03;8.88;;;6.40;99.90;;;;;;5075652;28;20044;-74
2023/01/30 01:33:27;;;;;;;34.53;10.90;;;6.40;99.90;;;;;;5075638;28;20037;-74
2023/01/30 01:35:56;;;;;;;44.80;8.20;;;6.30;99.90;;;;;;5075943;28;20098;-74
2023/01/30 01:38:22;;;;;;;31.15;7.45;;;6.30;99.90;;;;;;5075675;28;20079;-74
2023/01/30 01:41:05;;;;;;;38.30;10.02;;;6.40;99.90;;;;;;5075708;28;20434;-74
2023/01/30 01:43:37;;;;;;;32.30;8.10;;;6.30;99.90;;;;;;5075504;28;20051;-74
2023/01/30 01:46:16;;;;;;;40.15;9.07;;;6.40;99.90;;;;;;5075527;28;20040;-74
2023/01/30 01:48:53;;;;;;;42.00;10.32;;;6.40;99.90;;;;;;5075478;28;20045;-74
2023/01/30 01:51:26;;;;;;;39.78;8.45;;;6.40;99.90;;;;;;5075201;28;20055;-74
2023/01/30 01:54:04;;;;;;;41.60;10.10;;;6.40;99.90;;;;;;5075589;28;20036;-74
2023/01/30 01:56:31;;;;;;;51.95;9.68;;;6.30;99.90;;;;;;5075300;28;20044;-74
2023/01/30 01:59:22;;;;;;;45.92;11.07;;;6.40;99.90;;;;;;5075316;28;20571;-74
2023/01/30 02:01:49;;;;;;;41.40;9.77;;;6.50;99.90;;;;;;5075034;28;20048;-74
2023/01/30 02:05:00;;;;;;;36.67;10.35;;;6.50;99.90;;;;;;5075406;28;20033;-74
2023/01/30 02:07:01;;;;;;;47.08;10.43;;;6.50;99.90;;;;;;5075011;28;20049;-74
2023/01/30 02:09:27;;;;;;;38.63;8.75;;;6.50;99.90;;;;;;5074158;28;20056;-74
2023/01/30 02:11:58;;;;;;;36.78;8.75;;;6.60;99.90;;;;;;5075035;28;20415;-74
2023/01/30 02:14:32;;;;;;;39.10;10.35;;;6.70;99.90;;;;;;5075160;28;20048;-74
2023/01/30 02:16:57;;;;;;;48.58;9.60;;;6.70;99.90;;;;;;5075087;28;20391;-74
2023/01/30 02:19:49;;;;;;;35.58;9.25;;;6.70;99.90;;;;;;5075034;28;20555;-74
2023/01/30 02:22:32;;;;;;;53.75;10.77;;;6.70;99.90;;;;;;5075172;28;20545;-74
2023/01/30 02:25:10;;;;;;;45.95;9.10;;;6.60;99.90;;;;;;5074738;28;20048;-74
2023/01/30 02:27:53;;;;;;;44.25;10.68;;;6.60;99.90;;;;;;5074699;28;20135;-74
2023/01/30 02:30:57;;;;;;;38.95;9.65;;;6.70;99.90;;;;;;5074624;28;20048;-74
2023/01/30 02:33:41;;;;;;;42.30;10.77;;;6.80;99.90;;;;;;5074833;28;20377;-74
2023/01/30 02:36:09;;;;;;;40.03;9.10;;;6.70;99.90;;;;;;5074610;28;20083;-74
2023/01/30 02:38:55;;;;;;;41.72;9.70;;;6.70;99.90;;;;;;5074766;28;20045;-74
2023/01/30 02:41:43;;;;;;;36.20;8.30;;;6.70;99.90;;;;;;5076008;28;20392;-74
2023/01/30 02:44:27;;;;;;;33.72;8.25;;;6.60;99.90;;;;;;5074686;28;20067;-74
2023/01/30 02:47:14;;;;;;;34.22;9.27;;;6.60;99.90;;;;;;5074727;28;20090;-74
2023/01/30 02:49:47;;;;;;;27.00;6.35;;;6.60;99.90;;;;;;5074389;28;20045;-74
2023/01/30 02:52:14;;;;;;;35.03;8.32;;;6.70;99.90;;;;;;5075693;28;20131;-74
2023/01/30 02:54:39;;;;;;;37.88;7.72;;;6.80;99.90;;;;;;5074491;28;20115;-74
2023/01/30 02:57:18;;;;;;;35.70;7.68;;;6.70;99.90;;;;;;5074286;28;20455;-74
2023/01/30 02:59:49;;;;;;;57.95;8.23;;;6.70;99.90;;;;;;5074246;28;20032;-74
2023/01/30 03:02:49;;;;;;;31.63;7.57;;;6.80;99.90;;;;;;5075732;28;20090;-74
2023/01/30 03:05:24;;;;;;;40.03;6.85;;;6.80;99.90;;;;;;5074262;28;20059;-74
2023/01/30 03:08:26;;;;;;;37.65;7.32;;;6.80;99.90;;;;;;5075227;28;20044;-74
2023/01/30 03:11:07;;;;;;;34.97;7.30;;;6.80;99.90;;;;;;5073720;28;20083;-74
2023/01/30 03:13:53;;;;;;;35.40;6.72;;;6.80;99.90;;;;;;5073888;28;20082;-74
2023/01/30 03:16:27;;;;;;;34.80;7.45;;;6.70;99.90;;;;;;5074080;28;20143;-74
2023/01/30 03:18:53;;;;;;;36.08;6.80;;;6.80;99.90;;;;;;5073613;28;20055;-74
2023/01/30 03:21:18;;;;;;;26.77;5.97;;;6.70;99.90;;;;;;5073395;28;20052;-74
2023/01/30 03:23:45;;;;;;;42.78;7.70;;;6.70;99.90;;;;;;5073707;28;20514;-74
2023/01/30 03:26:18;;;;;;;49.72;8.40;;;6.70;99.90;;;;;;5073631;28;20063;-74
2023/01/30 03:28:47;;;;;;;37.80;6.70;;;6.80;99.90;;;;;;5073319;28;20111;-74
2023/01/30 03:31:12;;;;;;;44.47;8.65;;;6.80;99.90;;;;;;5073312;28;20052;-74
2023/01/30 03:33:41;;;;;;;42.63;8.38;;;6.70;99.90;;;;;;5073342;28;20041;-74
2023/01/30 03:36:07;;;;;;;53.33;7.35;;;6.70;99.90;;;;;;5073388;28;20087;-74
2023/01/30 03:38:34;;;;;;;48.38;6.70;;;6.70;99.90;;;;;;5073593;28;20049;-74
2023/01/30 03:41:00;;;;;;;52.90;9.30;;;6.60;99.90;;;;;;5073325;28;20059;-74
2023/01/30 03:43:26;;;;;;;31.90;4.75;;;6.50;99.90;;;;;;5074472;28;20555;-74
2023/01/30 03:45:51;;;;;;;46.22;6.38;;;6.60;99.90;;;;;;5073087;28;20135;-74
2023/01/30 03:48:17;;;;;;;27.58;4.63;;;6.60;99.90;;;;;;5073252;28;20056;-74
2023/01/30 03:50:43;;;;;;;37.20;6.55;;;6.60;99.90;;;;;;5072979;28;20056;-74
2023/01/30 03:53:08;;;;;;;38.25;6.90;;;6.50;99.90;;;;;;5073307;28;20044;-74
2023/01/30 03:55:34;;;;;;;27.42;4.35;;;6.60;99.90;;;;;;5073036;28;20076;-74
2023/01/30 03:57:59;;;;;;;37.08;6.13;;;6.60;99.90;;;;;;5073237;28;20040;-74
2023/01/30 04:00:25;;;;;;;48.47;5.90;;;6.60;99.90;;;;;;5074265;28;20062;-74
2023/01/30 04:02:52;;;;;;;37.42;7.53;;;6.50;99.90;;;;;;5073254;28;20455;-74
2023/01/30 04:05:18;;;;;;;34.40;4.40;;;6.50;99.90;;;;;;5074193;28;20044;-74
2023/01/30 04:07:43;;;;;;;39.53;5.13;;;6.50;99.90;;;;;;5072813;28;20396;-74
2023/01/30 04:10:09;;;;;;;22.85;4.85;;;6.40;99.90;;;;;;5072774;28;20048;-74
2023/01/30 04:12:35;;;;;;;31.42;5.30;;;6.50;99.90;;;;;;5072773;28;20072;-74
2023/01/30 04:15:01;;;;;;;29.65;5.13;;;6.50;99.90;;;;;;5072593;28;20078;-74
2023/01/30 04:17:26;;;;;;;33.47;3.95;;;6.50;99.90;;;;;;5072782;28;20037;-74
2023/01/30 04:19:52;;;;;;;33.10;6.43;;;6.50;99.90;;;;;;5072839;28;20068;-74
2023/01/30 04:22:17;;;;;;;40.22;6.95;;;6.50;99.90;;;;;;5073960;28;20048;-74
2023/01/30 04:24:43;;;;;;;32.80;5.22;;;6.50;99.90;;;;;;5073930;28;20131;-74
2023/01/30 04:27:11;;;;;;;33.40;6.07;;;6.50;99.90;;;;;;5072612;28;20048;-74
2023/01/30 04:29:37;;;;;;;32.88;4.68;;;6.40;99.90;;;;;;5072296;28;20091;-74
2023/01/30 04:32:02;;;;;;;36.00;5.47;;;6.40;99.90;;;;;;5071849;28;20468;-74
2023/01/30 04:34:28;;;;;;;33.28;5.65;;;6.40;99.90;;;;;;5072683;28;20048;-74
2023/01/30 04:36:54;;;;;;;35.33;5.32;;;6.30;99.90;;;;;;5072429;28;20055;-74
2023/01/30 04:39:19;;;;;;;34.53;4.70;;;6.40;99.90;;;;;;5072741;28;20174;-74
2023/01/30 04:41:45;;;;;;;34.22;4.68;;;6.40;99.90;;;;;;5072599;28;20415;-74
2023/01/30 04:44:10;;;;;;;33.47;5.57;;;6.40;99.90;;;;;;5072263;28;20044;-74
2023/01/30 04:46:36;;;;;;;17.70;3.45;;;6.50;99.90;;;;;;5072536;28;20041;-74
2023/01/30 04:49:02;;;;;;;39.03;5.20;;;6.40;99.90;;;;;;5072325;28;20497;-74
2023/01/30 04:51:28;;;;;;;45.60;7.20;;;6.40;99.90;;;;;;5072260;28;20047;-74
2023/01/30 04:53:53;;;;;;;36.72;4.85;;;6.40;99.90;;;;;;5072569;28;20051;-74
2023/01/30 04:56:21;;;;;;;44.55;4.38;;;6.40;99.90;;;;;;5072279;28;20044;-74
2023/01/30 04:58:47;;;;;;;42.55;5.28;;;6.40;99.90;;;;;;5072124;28;20471;-74
2023/01/30 05:01:24;;;;;;;44.22;8.30;;;6.40;99.90;;;;;;5072147;28;20131;-74
2023/01/30 05:03:51;;;;;;;48.70;5.88;;;6.40;99.90;;;;;;5072465;28;20032;-74
2023/01/30 05:06:16;;;;;;;31.08;4.30;;;6.30;99.90;;;;;;5072193;28;20062;-74
2023/01/30 05:08:42;;;;;;;42.40;6.03;;;6.30;99.90;;;;;;5072391;28;20123;-74
2023/01/30 05:11:07;;;;;;;33.40;5.63;;;6.20;99.90;;;;;;5071896;28;20045;-74
2023/01/30 05:13:33;;;;;;;33.78;4.95;;;6.20;99.90;;;;;;5072303;28;20119;-74
2023/01/30 05:15:59;;;;;;;35.17;6.45;;;6.20;99.90;;;;;;5071992;28;20049;-74
2023/01/30 05:18:24;;;;;;;31.35;4.90;;;6.30;99.90;;;;;;5072068;28;20158;-74
2023/01/30 05:20:50;;;;;;;30.25;4.22;;;6.30;99.90;;;;;;5072055;28;20044;-74
2023/01/30 05:23:15;;;;;;;25.75;4.53;;;6.30;99.90;;;;;;5072006;28;20041;-74
2023/01/30 05:25:41;;;;;;;40.50;6.25;;;6.40;99.90;;;;;;5072134;28;20036;-74
2023/01/30 05:28:07;;;;;;;25.00;4.82;;;6.40;99.90;;;;;;5071600;28;20061;-74
2023/01/30 05:30:32;;;;;;;48.65;7.18;;;6.40;99.90;;;;;;5071845;28;20503;-74
2023/01/30 05:32:58;;;;;;;39.20;6.82;;;6.40;99.90;;;;;;5072993;28;20045;-74
2023/01/30 05:35:24;;;;;;;40.40;5.93;;;6.40;99.90;;;;;;5072126;28;20384;-74
2023/01/30 05:37:50;;;;;;;43.28;6.43;;;6.40;99.90;;;;;;5072179;28;20467;-74
2023/01/30 05:40:16;;;;;;;28.83;4.38;;;6.40;99.90;;;;;;5071693;28;20045;-74
2023/01/30 05:42:41;;;;;;;40.10;6.75;;;6.30;99.90;;;;;;5071719;28;20070;-74
2023/01/30 05:45:10;;;;;;;51.08;7.10;;;6.30;99.90;;;;;;5075047;28;20052;-74
2023/01/30 05:47:39;;;;;;;37.10;6.65;;;6.20;99.90;;;;;;5075798;28;20070;-74
2023/01/30 05:50:05;;;;;;;55.25;8.95;;;6.10;99.90;;;;;;5075588;28;20048;-74
2023/01/30 05:52:30;;;;;;;46.47;7.65;;;6.10;99.90;;;;;;5075279;28;20476;-74
2023/01/30 05:54:56;;;;;;;52.47;8.30;;;6.10;99.90;;;;;;5076685;28;20029;-74
2023/01/30 05:57:22;;;;;;;50.10;7.95;;;6.10;99.90;;;;;;5075202;28;20525;-74
2023/01/30 05:59:47;;;;;;;36.75;6.57;;;6.20;99.90;;;;;;5075441;28;20044;-74
2023/01/30 06:02:13;;;;;;;28.75;4.03;;;6.20;99.90;;;;;;5075233;28;20150;-74
2023/01/30 06:04:39;;;;;;;35.72;5.18;;;6.40;99.90;;;;;;5075388;28;20048;-74
2023/01/30 06:07:04;;;;;;;49.08;6.70;;;6.40;99.90;;;;;;5075355;28;20051;-74
2023/01/30 06:09:30;;;;;;;29.23;5.38;;;6.40;99.90;;;;;;5076363;28;20391;-74
2023/01/30 06:11:55;;;;;;;33.08;5.78;;;6.40;99.90;;;;;;5074989;28;20153;-74
2023/01/30 06:14:21;;;;;;;40.45;6.13;;;6.30;99.90;;;;;;5075130;28;20044;-74
2023/01/30 06:16:47;;;;;;;39.33;6.10;;;6.40;99.90;;;;;;5074930;28;20507;-74
2023/01/30 06:19:12;;;;;;;21.30;3.88;;;6.40;99.90;;;;;;5075032;28;20128;-74
2023/01/30 06:21:38;;;;;;;48.47;8.65;;;6.40;99.90;;;;;;5074400;28;20045;-74
2023/01/30 06:24:03;;;;;;;36.33;5.65;;;6.40;99.90;;;;;;5074612;28;20048;-74
2023/01/30 06:26:29;;;;;;;35.17;4.07;;;6.30;99.90;;;;;;5074682;28;20037;-74
2023/01/30 06:28:55;;;;;;;45.45;5.75;;;6.30;99.90;;;;;;5074540;28;20053;-74
2023/01/30 06:31:20;;;;;;;34.47;7.18;;;6.30;99.90;;;;;;5074624;28;20045;-74
2023/01/30 06:33:48;;;;;;;33.30;6.00;;;6.30;99.90;;;;;;5074953;28;20423;-74
2023/01/30 06:36:13;;;;;;;45.35;6.22;;;6.30;99.90;;;;;;5075917;28;20041;-74
2023/01/30 06:38:39;;;;;;;56.17;6.20;;;6.30;99.90;;;;;;5074405;28;20040;-76
2023/01/30 06:41:10;;;;;;;31.13;6.38;;;6.30;99.90;;;;;;5074698;28;20162;-74
2023/01/30 06:43:44;;;;;;;38.10;6.07;;;6.30;99.90;;;;;;5074721;28;20176;-74
2023/01/30 06:46:10;;;;;;;27.63;5.35;;;6.30;99.90;;;;;;5075824;28;20052;-74
2023/01/30 06:48:35;;;;;;;43.15;6.70;;;6.30;99.90;;;;;;5075672;28;20032;-74
2023/01/30 06:51:01;;;;;;;42.72;6.03;;;6.20;99.90;;;;;;5074137;28;20068;-74
2023/01/30 06:53:33;;;;;;;40.70;6.70;;;6.20;99.90;;;;;;5074242;28;20056;-74
2023/01/30 06:56:00;;;;;;;36.05;5.88;;;6.20;99.90;;;;;;5073608;28;20173;-74
2023/01/30 06:58:25;;;;;;;39.05;5.90;;;6.20;99.90;;;;;;5074424;28;20044;-74
2023/01/30 07:00:51;;;;;;;26.05;4.43;;;6.20;99.90;;;;;;5074221;28;20480;-74
2023/01/30 07:03:17;;;;;;;38.53;4.45;;;6.20;99.90;;;;;;5073983;28;20037;-74
2023/01/30 07:05:45;;;;;;;45.38;6.95;;;6.30;99.90;;;;;;5074163;28;20136;-74
2023/01/30 07:08:11;;;;;;;37.60;6.03;;;6.30;99.90;;;;;;5074157;28;20040;-74
2023/01/30 07:10:37;;;;;;;33.60;7.13;;;6.30;99.90;;;;;;5073829;28;20049;-74
2023/01/30 07:13:03;;;;;;;45.70;6.40;;;6.30;99.90;;;;;;5074114;28;20124;-74
2023/01/30 07:15:31;;;;;;;60.05;7.00;;;6.30;99.90;;;;;;5073850;28;20114;-74
2023/01/30 07:17:57;;;;;;;53.75;8.98;;;6.30;99.90;;;;;;5073877;28;20048;-74
2023/01/30 07:20:23;;;;;;;35.85;6.93;;;6.30;99.90;;;;;;5073661;28;20113;-74
2023/01/30 07:22:53;;;;;;;42.90;6.20;;;6.30;99.90;;;;;;5073493;28;20139;-74
2023/01/30 07:25:21;;;;;;;36.67;6.70;;;6.30;99.90;;;;;;5072333;28;20106;-74
2023/01/30 07:27:55;;;;;;;49.30;6.97;;;6.30;99.90;;;;;;5072296;28;20048;-74
2023/01/30 07:30:21;;;;;;;31.33;5.22;;;6.30;99.90;;;;;;5073267;28;20131;-74
2023/01/30 07:32:51;;;;;;;39.75;7.18;;;6.30;99.90;;;;;;5073231;28;20127;-74
2023/01/30 07:35:17;;;;;;;24.42;4.55;;;6.30;99.90;;;;;;5074684;28;20048;-74
2023/01/30 07:37:47;;;;;;;31.02;5.32;;;6.40;99.90;;;;;;5073444;28;20051;-74
2023/01/30 07:40:14;;;;;;;46.15;5.65;;;6.40;99.90;;;;;;5073596;28;20391;-74
2023/01/30 07:42:40;;;;;;;36.20;6.47;;;6.40;99.90;;;;;;5074292;28;20104;-74
2023/01/30 07:45:06;;;;;;;27.25;4.18;;;6.40;99.90;;;;;;5073155;28;20099;-74
2023/01/30 07:47:32;;;;;;;33.17;6.43;;;6.40;99.90;;;;;;5072988;28;20133;-74
2023/01/30 07:49:58;;;;;;;39.03;7.50;;;6.40;99.90;;;;;;5074306;28;20138;-75
2023/01/30 07:52:23;;;;;;;29.75;4.93;;;6.40;99.90;;;;;;5073042;28;20181;-74
2023/01/30 07:54:49;;;;;;;25.33;5.10;;;6.40;99.90;;;;;;5073060;28;20032;-75
2023/01/30 07:57:14;;;;;;;20.73;4.25;;;6.40;99.90;;;;;;5073008;28;20070;-73
2023/01/30 07:59:40;;;;;;;30.98;4.53;;;6.40;99.90;;;;;;5072861;28;20037;-74
2023/01/30 08:02:08;;;;;;;33.50;4.35;;;6.40;99.90;;;;;;5072726;28;20040;-74
2023/01/30 08:04:33;;;;;;;31.55;4.95;;;6.50;99.90;;;;;;5072591;28;20123;-75
2023/01/30 08:06:59;;;;;;;33.50;5.22;;;6.50;99.90;;;;;;5063312;28;20127;-73
2023/01/30 08:09:24;;;;;;;44.20;6.55;;;6.50;99.90;;;;;;5052337;28;20496;-74
2023/01/30 08:11:50;;;;;;;25.08;5.38;;;6.50;99.90;;;;;;5052566;28;20136;-73
2023/01/30 08:14:16;;;;;;;39.40;7.00;;;6.50;99.90;;;;;;5052578;28;20047;-73
2023/01/30 08:16:41;;;;;;;41.75;6.22;;;6.50;99.90;;;;;;5052297;28;20468;-74
2023/01/30 08:19:07;;;;;;;25.40;5.70;;;6.50;99.90;;;;;;5053703;28;20072;-74
2023/01/30 08:21:33;;;;;;;34.70;6.32;;;6.50;99.90;;;;;;5052146;28;20047;-74
2023/01/30 08:23:58;;;;;;;41.25;6.28;;;6.50;99.90;;;;;;5052412;28;20049;-73
2023/01/30 08:26:24;;;;;;;25.00;5.05;;;6.50;99.90;;;;;;5052182;28;20053;-74
2023/01/30 08:28:49;;;;;;;49.80;6.88;;;6.40;99.90;;;;;;5053032;28;20076;-74
2023/01/30 08:31:16;;;;;;;43.92;6.78;;;6.50;99.90;;;;;;5053476;28;20036;-74
2023/01/30 08:33:41;;;;;;;59.15;6.97;;;6.50;99.90;;;;;;5052150;28;20044;-73
2023/01/30 08:36:08;;;;;;;39.20;6.50;;;6.50;99.90;;;;;;5052022;28;20094;-73
2023/01/30 08:38:36;;;;;;;46.67;6.53;;;6.50;99.90;;;;;;5051975;28;20190;-74
2023/01/30 08:41:05;;;;;;;36.35;6.07;;;6.50;99.90;;;;;;5085849;28;20052;-73
2023/01/30 08:43:31;;;;;;;47.13;8.02;;;6.50;99.90;;;;;;5051828;28;20049;-74
2023/01/30 08:45:56;;;;;;;50.33;8.10;;;6.50;99.90;;;;;;5053193;28;20052;-74
2023/01/30 08:48:22;;;;;;;42.75;5.82;;;6.50;99.90;;;;;;5052184;28;20514;-74
2023/01/30 08:50:52;;;;;;;47.63;7.43;;;6.50;99.90;;;;;;5051905;28;20498;-74
2023/01/30 08:53:18;;;;;;;33.90;6.10;;;6.60;99.90;;;;;;5085397;28;20072;-74
2023/01/30 08:55:45;;;;;;;47.92;6.30;;;6.60;99.90;;;;;;5051793;28;20072;-74
2023/01/30 08:58:10;;;;;;;43.95;7.68;;;6.70;99.90;;;;;;5051717;28;20095;-75
2023/01/30 09:00:38;;;;;;;48.53;7.45;;;6.70;99.90;;;;;;5052063;28;20045;-74
2023/01/30 09:03:03;;;;;;;33.63;6.63;;;6.70;99.90;;;;;;5051709;28;20124;-74
2023/01/30 09:05:29;;;;;;;42.90;7.43;;;6.70;99.90;;;;;;5051997;28;20123;-74
2023/01/30 09:07:55;;;;;;;35.13;5.47;;;6.70;99.90;;;;;;5053228;28;20506;-74
2023/01/30 09:10:23;;;;;;;41.95;7.47;;;6.70;99.90;;;;;;5053073;28;20044;-73
2023/01/30 09:12:48;;;;;;;37.10;5.97;;;6.60;99.90;;;;;;5051728;28;20059;-74
2023/01/30 09:15:14;;;;;;;27.33;5.85;;;6.70;99.90;;;;;;5051700;28;20120;-74
2023/01/30 09:17:40;;;;;;;22.65;5.18;;;6.70;99.90;;;;;;5060841;28;20132;-74
2023/01/30 09:20:08;;;;;;;44.97;6.40;;;6.70;99.90;;;;;;5075210;28;20048;-74
2023/01/30 09:22:34;;;;;;;31.55;6.65;;;6.70;99.90;;;;;;5075860;28;20040;-74
2023/01/30 09:24:59;;;;;;;31.85;5.55;;;6.80;99.90;;;;;;5075382;28;20381;-74
2023/01/30 09:27:25;;;;;;;36.33;5.95;;;6.80;99.90;;;;;;5075322;28;20072;-74
2023/01/30 09:29:51;;;;;;;22.08;3.75;;;6.90;99.90;;;;;;5075343;28;20056;-74
2023/01/30 09:32:16;;;;;;;48.10;7.65;;;6.90;99.90;;;;;;5076915;28;20070;-74
2023/01/30 09:34:42;;;;;;;42.10;5.88;;;6.90;99.90;;;;;;5076854;28;20043;-74
2023/01/30 09:37:07;;;;;;;36.95;5.38;;;6.90;99.90;;;;;;5075247;28;20059;-74
2023/01/30 09:39:33;;;;;;;33.75;6.38;;;6.90;99.90;;;;;;5075184;28;20522;-73
2023/01/30 09:42:23;;;;;;;47.22;7.28;;;7.00;99.90;;;;;;5075241;28;20080;-73
2023/01/30 09:44:51;;;;;;;36.20;4.63;;;7.10;99.90;;;;;;5075461;28;20127;-74
2023/01/30 09:47:31;;;;;;;34.75;5.55;;;7.10;99.90;;;;;;5075406;28;20047;-73
2023/01/30 09:50:24;;;;;;;42.85;5.82;;;7.10;99.90;;;;;;5074850;28;20044;-74
2023/01/30 09:53:05;;;;;;;35.92;7.00;;;7.10;99.90;;;;;;5075341;28;20048;-73
2023/01/30 09:55:36;;;;;;;51.05;6.40;;;7.20;99.90;;;;;;5074934;28;20041;-73
2023/01/30 09:58:02;;;;;;;45.55;5.53;;;7.10;99.90;;;;;;5074867;28;20041;-74
2023/01/30 10:00:34;;;;;;;53.60;7.43;;;7.20;99.90;;;;;;5075371;28;20455;-73
2023/01/30 10:03:21;;;;;;;36.55;6.72;;;7.30;99.90;;;;;;5076388;28;20086;-74
2023/01/30 10:06:01;;;;;;;36.08;6.22;;;7.50;99.90;;;;;;5074987;28;20056;-74
2023/01/30 10:08:50;;;;;;;28.05;4.43;;;7.30;99.90;;;;;;5074782;28;20456;-74
2023/01/30 10:11:39;;;;;;;14.15;3.13;;;7.00;99.90;;;;;;5074488;28;20049;-74
2023/01/30 10:14:14;;;;;;;29.33;4.50;;;6.60;99.90;;;;;;5074563;28;20466;-74
2023/01/30 10:17:05;;;;;;;16.02;3.80;;;6.40;99.90;;;;;;5074879;28;20084;-74
2023/01/30 10:19:31;;;;;;;15.80;3.42;;;6.30;99.90;;;;;;5074881;28;20127;-74
2023/01/30 10:22:30;;;;;;;17.73;3.08;;;6.30;99.90;;;;;;5074696;28;20136;-74
2023/01/30 10:25:15;;;;;;;24.88;3.67;;;6.20;99.90;;;;;;5074505;28;20102;-74
2023/01/30 10:27:49;;;;;;;15.80;2.55;;;6.10;99.90;;;;;;5074446;28;20044;-73
2023/01/30 10:30:16;;;;;;;21.10;3.83;;;6.10;99.90;;;;;;5073109;28;20053;-74
2023/01/30 10:32:49;;;;;;;24.17;4.22;;;6.30;99.90;;;;;;5071863;28;20060;-74
2023/01/30 10:35:19;;;;;;;;;;;6.40;99.90;;;;;;5108581;28;20044;-73
2023/01/30 10:37:56;;;;;;;33.42;4.22;;;6.50;99.90;;;;;;5074198;28;19924;-74
2023/01/30 10:40:59;;;;;;;24.88;3.47;;;6.50;99.90;;;;;;5074484;28;20540;-73
2023/01/30 10:43:44;;;;;;;18.15;3.92;;;6.60;99.90;;;;;;5074315;28;20056;-73
2023/01/30 10:46:28;;;;;;;22.50;3.88;;;6.60;99.90;;;;;;5074047;28;20048;-73
2023/01/30 10:49:17;;;;;;;28.73;5.97;;;6.70;99.90;;;;;;5074366;28;20040;-73
2023/01/30 10:52:10;;;;;;;24.38;5.50;;;6.80;99.90;;;;;;5073921;28;20428;-73
2023/01/30 10:55:02;;;;;;;26.67;4.65;;;6.90;99.90;;;;;;5074122;28;20040;-74
2023/01/30 10:58:05;;;;;;;28.95;4.93;;;7.00;99.90;;;;;;5074049;28;20048;-73
2023/01/30 11:00:40;;;;;;;25.63;3.60;;;7.10;99.90;;;;;;5074101;28;20094;-73
2023/01/30 11:03:34;;;;;;;19.42;2.65;;;7.20;99.90;;;;;;5107912;28;20128;-74
2023/01/30 11:06:06;;;;;;;23.45;3.35;;;7.30;99.90;;;;;;5073760;28;20048;-73
2023/01/30 11:08:34;;;;;;;26.88;4.45;;;7.30;99.90;;;;;;5073854;28;20048;-73
2023/01/30 11:11:00;;;;;;;37.08;5.57;;;7.30;99.90;;;;;;5073521;28;20048;-73
2023/01/30 11:13:33;;;;;;;36.30;5.90;;;7.30;99.90;;;;;;5074868;28;20044;-74
2023/01/30 11:16:06;;;;;;;17.50;3.10;;;7.40;99.90;;;;;;5073673;28;20040;-74
2023/01/30 11:18:42;;;;;;;35.15;5.15;;;7.50;99.90;;;;;;5073447;28;20091;-74
2023/01/30 11:21:17;;;;;;;19.33;4.60;;;7.60;99.90;;;;;;5074915;28;20044;-74
2023/01/30 11:23:42;;;;;;;22.48;3.80;;;7.60;99.90;;;;;;5107114;28;20082;-73
2023/01/30 11:26:34;;;;;;;21.30;3.03;;;7.60;99.90;;;;;;5073269;28;20135;-74
2023/01/30 11:29:33;;;;;;;18.75;2.70;;;7.70;99.90;;;;;;5073258;28;20127;-74
2023/01/30 11:32:24;;;;;;;26.35;3.72;;;7.80;99.90;;;;;;5074638;28;20124;-74
2023/01/30 11:35:06;;;;;;;26.85;3.47;;;7.80;99.90;;;;;;5073280;28;20058;-73
2023/01/30 11:37:34;;;;;;;27.95;4.28;;;7.80;99.90;;;;;;5073079;28;20044;-74
2023/01/30 11:40:12;;;;;;;27.02;4.63;;;7.70;99.90;;;;;;5072921;28;20123;-74
2023/01/30 11:42:44;;;;;;;29.67;4.43;;;7.70;99.90;;;;;;5072804;28;20040;-73
2023/01/30 11:45:11;;;;;;;22.08;3.60;;;7.60;99.90;;;;;;5073173;28;20055;-74
2023/01/30 11:47:38;;;;;;;25.10;4.18;;;7.60;99.90;;;;;;5072773;28;20053;-74
2023/01/30 11:50:04;;;;;;;20.55;4.45;;;7.60;99.90;;;;;;5072667;28;20502;-74
2023/01/30 11:52:36;;;;;;;19.08;3.47;;;7.60;99.90;;;;;;5073979;28;20519;-74
2023/01/30 11:55:15;;;;;;;16.08;3.08;;;7.70;99.90;;;;;;5072949;28;20047;-73
2023/01/30 11:57:46;;;;;;;30.48;5.75;;;7.60;99.90;;;;;;5073977;28;20116;-74
2023/01/30 12:00:39;;;;;;;29.10;4.78;;;7.60;99.90;;;;;;5072611;28;20036;-74
2023/01/30 12:03:10;;;;;;;47.55;6.18;;;7.60;99.90;;;;;;5072524;28;20561;-74
2023/01/30 12:05:41;;;;;;;25.02;3.90;;;7.70;99.90;;;;;;5072450;28;20059;-74
2023/01/30 12:08:34;;;;;;;36.10;5.10;;;7.70;99.90;;;;;;5072459;28;20132;-74
2023/01/30 12:11:01;;;;;;;27.92;6.05;;;7.70;99.90;;;;;;5072356;28;20049;-74
2023/01/30 12:13:37;;;;;;;22.45;5.00;;;7.60;99.90;;;;;;5072366;28;20096;-73
2023/01/30 12:16:08;;;;;;;33.45;6.22;;;7.60;99.90;;;;;;5072295;28;20049;-73
2023/01/30 12:18:41;;;;;;;33.20;5.22;;;7.70;99.90;;;;;;5072416;28;20075;-73
2023/01/30 12:21:12;;;;;;;;;;;7.70;99.90;;;;;;5072638;28;20063;-74
2023/01/30 12:23:41;;;;;;;31.27;4.90;;;7.70;99.90;;;;;;5072364;28;19920;-74
2023/01/30 12:26:19;;;;;;;35.25;4.63;;;7.70;99.90;;;;;;5072427;28;20083;-74
2023/01/30 12:29:21;;;;;;;35.08;5.90;;;7.70;99.90;;;;;;5072054;28;20398;-74
2023/01/30 12:31:58;;;;;;;42.47;5.40;;;7.70;99.90;;;;;;5060466;28;20059;-74
2023/01/30 12:34:24;;;;;;;47.80;8.45;;;7.70;99.90;;;;;;5072185;28;20036;-74
2023/01/30 12:36:55;;;;;;;36.08;5.07;;;7.80;99.90;;;;;;5071953;28;20550;-74
2023/01/30 12:39:53;;;;;;;33.95;6.05;;;7.70;99.90;;;;;;5072374;28;20548;-74
2023/01/30 12:42:46;;;;;;;27.17;5.57;;;7.70;99.90;;;;;;5072311;28;20109;-74
2023/01/30 12:45:29;;;;;;;28.35;6.10;;;7.80;99.90;;;;;;5072351;28;20178;-74
2023/01/30 12:48:13;;;;;;;;;;;7.70;99.90;;;;;;5071724;28;20064;-74
2023/01/30 12:50:42;;;;;;;26.08;4.90;;;7.70;99.90;;;;;;5073383;28;19920;-74
2023/01/30 12:53:21;;;;;;;44.28;5.43;;;7.80;99.90;;;;;;5072677;28;20083;-74
2023/01/30 12:56:15;;;;;;;40.15;5.18;;;7.80;99.90;;;;;;5072029;28;20082;-74
2023/01/30 12:58:52;;;;;;;37.17;5.22;;;7.80;99.90;;;;;;5072020;28;20045;-74
2023/01/30 13:01:37;;;;;;;38.70;5.13;;;7.80;99.90;;;;;;5071822;28;20050;-74
2023/01/30 13:04:23;;;;;;;28.33;3.97;;;7.70;99.90;;;;;;5070946;28;20131;-73
2023/01/30 13:07:00;;;;;;;31.48;4.95;;;7.80;99.90;;;;;;5072017;28;20079;-74
2023/01/30 13:09:59;;;;;;;44.85;8.00;;;7.80;99.90;;;;;;5070275;28;20071;-73
2023/01/30 13:12:50;;;;;;;28.52;4.72;;;7.70;99.90;;;;;;5073147;28;20041;-73